Time,TemperatureF,DewpointF,PressureIn,WindDirection,WindDirectionDegrees,WindSpeedMPH,WindSpeedGustMPH,Humidity,HourlyPrecipIn,Conditions,Clouds,dailyrainin,SoftwareType,DateUTC
2013-08-16 00:01:00,79.2,76.2,30.06,SE,128,0.0,3.5,91,0.00,,,0.00,WUHU216PEETBRO,2013-08-16 04:01:00,
2013-08-16 00:06:00,79.0,76.0,30.06,SE,124,0.0,4.5,91,0.00,,,0.00,WUHU216PEETBRO,2013-08-16 04:06:00,
2013-08-16 00:11:00,78.9,76.0,30.06,ESE,114,0.0,4.5,91,0.00,,,0.00,WUHU216PEETBRO,2013-08-16 04:11:00,
2013-08-16 00:16:00,78.8,75.9,30.06,ESE,111,4.7,5.2,91,0.00,,,0.00,WUHU216PEETBRO,2013-08-16 04:16:00,
2013-08-16 00:21:00,78.7,75.9,30.06,ESE,110,0.0,5.3,91,0.00,,,0.00,WUHU216PEETBRO,2013-08-16 04:21:00,
2013-08-16 00:26:00,78.5,75.8,30.06,ESE,110,0.0,5.3,91,0.00,,,0.00,WUHU216PEETBRO,2013-08-16 04:26:00,
2013-08-16 00:31:00,78.4,75.7,30.06,ESE,110,0.0,0.0,92,0.00,,,0.00,WUHU216PEETBRO,2013-08-16 04:31:00,
2013-08-16 00:36:00,78.4,75.8,30.06,ESE,110,0.0,0.0,92,0.00,,,0.00,WUHU216PEETBRO,2013-08-16 04:36:00,
2013-08-16 00:41:00,78.3,75.8,30.06,ESE,110,0.0,0.0,92,0.00,,,0.00,WUHU216PEETBRO,2013-08-16 04:41:00,
2013-08-16 00:46:00,78.3,75.8,30.06,ESE,110,0.0,0.0,92,0.00,,,0.00,WUHU216PEETBRO,2013-08-16 04:46:00,
2013-08-16 00:51:00,78.3,75.9,30.05,ESE,110,0.0,0.0,92,0.00,,,0.00,WUHU216PEETBRO,2013-08-16 04:51:00,
2013-08-16 00:56:00,78.4,76.0,30.05,ESE,110,0.0,0.0,93,0.00,,,0.00,WUHU216PEETBRO,2013-08-16 04:56:00,
2013-08-16 01:01:00,78.4,76.0,30.05,ESE,110,0.0,0.0,93,0.00,,,0.00,WUHU216PEETBRO,2013-08-16 05:01:00,
2013-08-16 01:06:00,78.5,76.2,30.05,ESE,110,0.0,0.0,93,0.00,,,0.00,WUHU216PEETBRO,2013-08-16 05:06:00,
2013-08-16 01:11:00,78.5,76.2,30.05,ESE,110,0.0,0.0,93,0.00,,,0.00,WUHU216PEETBRO,2013-08-16 05:11:00,
2013-08-16 01:19:00,78.7,76.4,30.04,ESE,110,0.0,0.0,93,0.00,,,0.00,WUHU216PEETBRO,2013-08-16 05:19:00,
2013-08-16 01:24:00,78.7,76.4,30.04,ESE,110,0.0,0.0,93,0.00,,,0.00,WUHU216PEETBRO,2013-08-16 05:24:00,
2013-08-16 01:29:00,78.7,76.4,30.04,ESE,110,0.0,0.0,93,0.00,,,0.00,WUHU216PEETBRO,2013-08-16 05:29:00,
2013-08-16 01:34:00,78.8,76.5,30.03,ESE,110,0.0,0.0,93,0.00,,,0.00,WUHU216PEETBRO,2013-08-16 05:34:00,
2013-08-16 01:39:00,78.9,76.6,30.03,ESE,110,0.0,0.0,93,0.00,,,0.00,WUHU216PEETBRO,2013-08-16 05:39:00,
2013-08-16 01:44:00,78.9,76.6,30.03,ESE,110,0.0,0.0,93,0.00,,,0.00,WUHU216PEETBRO,2013-08-16 05:44:00,
2013-08-16 01:49:00,79.0,76.7,30.02,ESE,110,0.0,0.0,93,0.00,,,0.00,WUHU216PEETBRO,2013-08-16 05:49:00,
2013-08-16 01:54:00,79.0,76.7,30.02,ESE,110,0.0,0.0,93,0.00,,,0.00,WUHU216PEETBRO,2013-08-16 05:54:00,
2013-08-16 01:59:00,79.1,76.8,30.02,ESE,110,0.0,0.0,93,0.00,,,0.00,WUHU216PEETBRO,2013-08-16 05:59:00,
2013-08-16 02:04:00,79.1,76.8,30.02,ESE,110,0.0,0.0,93,0.00,,,0.00,WUHU216PEETBRO,2013-08-16 06:04:00,
2013-08-16 02:09:00,79.2,76.8,30.02,ESE,110,0.0,0.0,93,0.00,,,0.00,WUHU216PEETBRO,2013-08-16 06:09:00,
2013-08-16 02:14:00,79.1,76.8,30.02,ESE,110,0.0,0.0,93,0.00,,,0.00,WUHU216PEETBRO,2013-08-16 06:14:00,
2013-08-16 02:19:00,79.2,76.8,30.02,ESE,110,0.0,0.0,93,0.00,,,0.00,WUHU216PEETBRO,2013-08-16 06:19:00,
2013-08-16 02:24:00,79.2,76.8,30.02,ESE,110,0.0,0.0,93,0.00,,,0.00,WUHU216PEETBRO,2013-08-16 06:24:00,
2013-08-16 02:29:00,79.2,76.8,30.02,ESE,110,0.0,0.0,93,0.00,,,0.00,WUHU216PEETBRO,2013-08-16 06:29:00,
2013-08-16 02:34:00,79.2,76.8,30.02,ESE,110,0.0,0.0,93,0.00,,,0.00,WUHU216PEETBRO,2013-08-16 06:34:00,
2013-08-16 02:39:00,79.1,76.8,30.02,ESE,110,0.0,0.0,93,0.00,,,0.00,WUHU216PEETBRO,2013-08-16 06:39:00,
2013-08-16 02:44:00,79.2,76.8,30.02,ESE,110,0.0,0.0,93,0.00,,,0.00,WUHU216PEETBRO,2013-08-16 06:44:00,
2013-08-16 02:49:00,79.2,76.8,30.02,ESE,110,0.0,0.0,93,0.00,,,0.00,WUHU216PEETBRO,2013-08-16 06:49:00,
2013-08-16 02:54:00,79.3,76.9,30.02,ESE,110,0.0,0.0,93,0.00,,,0.00,WUHU216PEETBRO,2013-08-16 06:54:00,
2013-08-16 02:59:00,79.4,77.0,30.02,ESE,110,0.0,0.0,93,0.00,,,0.00,WUHU216PEETBRO,2013-08-16 06:59:00,
2013-08-16 03:04:00,79.4,77.0,30.02,ESE,110,0.0,0.0,93,0.00,,,0.00,WUHU216PEETBRO,2013-08-16 07:04:00,
2013-08-16 03:09:00,79.4,77.0,30.02,ESE,110,0.0,0.0,92,0.00,,,0.00,WUHU216PEETBRO,2013-08-16 07:09:00,
2013-08-16 03:14:00,79.4,77.0,30.02,ESE,110,0.0,0.0,92,0.00,,,0.00,WUHU216PEETBRO,2013-08-16 07:14:00,
2013-08-16 03:19:00,79.4,77.0,30.02,ESE,110,0.0,0.0,92,0.00,,,0.00,WUHU216PEETBRO,2013-08-16 07:19:00,
2013-08-16 03:24:00,79.5,77.1,30.02,ESE,110,0.0,0.0,92,0.00,,,0.00,WUHU216PEETBRO,2013-08-16 07:24:00,
2013-08-16 03:29:00,79.5,77.0,30.02,ESE,110,0.0,0.0,92,0.00,,,0.00,WUHU216PEETBRO,2013-08-16 07:29:00,
2013-08-16 03:34:00,79.7,77.2,30.02,SSE,165,0.0,7.8,92,0.00,,,0.00,WUHU216PEETBRO,2013-08-16 07:34:00,
2013-08-16 03:39:00,79.7,77.2,30.02,SSE,163,0.0,7.8,92,0.00,,,0.00,WUHU216PEETBRO,2013-08-16 07:39:00,
2013-08-16 03:44:00,79.7,77.2,30.02,SSE,163,0.0,4.4,92,0.00,,,0.00,WUHU216PEETBRO,2013-08-16 07:44:00,
2013-08-16 03:49:00,79.7,77.1,30.02,SSE,163,0.0,0.0,92,0.00,,,0.00,WUHU216PEETBRO,2013-08-16 07:49:00,
2013-08-16 03:54:00,79.7,77.1,30.02,South,172,0.0,3.3,92,0.00,,,0.00,WUHU216PEETBRO,2013-08-16 07:54:00,
2013-08-16 03:59:00,79.8,77.2,30.02,South,172,0.0,3.3,92,0.00,,,0.00,WUHU216PEETBRO,2013-08-16 07:59:00,
2013-08-16 04:04:00,79.7,77.1,30.03,South,172,0.0,0.0,92,0.00,,,0.00,WUHU216PEETBRO,2013-08-16 08:04:00,
2013-08-16 04:09:00,79.7,77.0,30.03,South,172,0.0,0.0,92,0.00,,,0.00,WUHU216PEETBRO,2013-08-16 08:09:00,
2013-08-16 04:14:00,79.7,77.0,30.03,South,172,0.0,0.0,92,0.00,,,0.00,WUHU216PEETBRO,2013-08-16 08:14:00,
2013-08-16 04:19:00,79.7,77.1,30.03,South,172,0.0,0.0,92,0.00,,,0.00,WUHU216PEETBRO,2013-08-16 08:19:00,
2013-08-16 04:24:00,79.5,76.9,30.03,South,172,0.0,0.0,92,0.00,,,0.00,WUHU216PEETBRO,2013-08-16 08:24:00,
2013-08-16 04:29:00,79.7,77.1,30.02,South,172,0.0,0.0,92,0.00,,,0.00,WUHU216PEETBRO,2013-08-16 08:29:00,
2013-08-16 04:34:00,79.7,77.1,30.02,South,172,0.0,0.0,92,0.00,,,0.00,WUHU216PEETBRO,2013-08-16 08:34:00,
2013-08-16 04:39:00,79.5,76.9,30.03,South,172,0.0,0.0,92,0.00,,,0.00,WUHU216PEETBRO,2013-08-16 08:39:00,
2013-08-16 04:44:00,79.7,77.1,30.03,South,172,0.0,0.0,92,0.00,,,0.00,WUHU216PEETBRO,2013-08-16 08:44:00,
2013-08-16 04:49:00,79.7,77.1,30.03,South,172,0.0,0.0,92,0.00,,,0.00,WUHU216PEETBRO,2013-08-16 08:49:00,
2013-08-16 04:54:00,79.7,77.1,30.03,South,172,0.0,0.0,92,0.00,,,0.00,WUHU216PEETBRO,2013-08-16 08:54:00,
2013-08-16 04:59:00,79.7,77.1,30.04,South,172,0.0,0.0,92,0.00,,,0.00,WUHU216PEETBRO,2013-08-16 08:59:00,
2013-08-16 05:04:00,79.7,77.1,30.04,South,172,0.0,0.0,92,0.00,,,0.00,WUHU216PEETBRO,2013-08-16 09:04:00,
2013-08-16 05:09:00,79.5,76.9,30.04,South,172,0.0,0.0,92,0.00,,,0.00,WUHU216PEETBRO,2013-08-16 09:09:00,
2013-08-16 05:14:00,79.5,76.9,30.04,South,172,0.0,3.0,92,0.00,,,0.00,WUHU216PEETBRO,2013-08-16 09:14:00,
2013-08-16 05:19:00,79.4,76.8,30.04,South,172,0.0,3.0,92,0.00,,,0.00,WUHU216PEETBRO,2013-08-16 09:19:00,
2013-08-16 05:24:00,79.5,76.8,30.04,South,172,0.0,0.0,92,0.00,,,0.00,WUHU216PEETBRO,2013-08-16 09:24:00,
2013-08-16 05:29:00,79.4,76.7,30.04,South,172,0.0,0.0,92,0.00,,,0.00,WUHU216PEETBRO,2013-08-16 09:29:00,
2013-08-16 05:34:00,79.4,76.6,30.04,South,172,0.0,0.0,91,0.00,,,0.00,WUHU216PEETBRO,2013-08-16 09:34:00,
2013-08-16 05:39:00,79.4,76.6,30.04,South,172,0.0,0.0,91,0.00,,,0.00,WUHU216PEETBRO,2013-08-16 09:39:00,
2013-08-16 05:44:00,79.4,76.5,30.04,South,172,0.0,0.0,91,0.00,,,0.00,WUHU216PEETBRO,2013-08-16 09:44:00,
2013-08-16 05:49:00,79.5,76.5,30.04,South,172,0.0,0.0,91,0.00,,,0.00,WUHU216PEETBRO,2013-08-16 09:49:00,
2013-08-16 05:54:00,79.4,76.4,30.04,South,172,0.0,0.0,91,0.00,,,0.00,WUHU216PEETBRO,2013-08-16 09:54:00,
2013-08-16 05:59:00,79.5,76.5,30.05,South,172,0.0,0.0,91,0.00,,,0.00,WUHU216PEETBRO,2013-08-16 09:59:00,
2013-08-16 06:04:00,79.5,76.4,30.05,South,172,0.0,0.0,90,0.00,,,0.00,WUHU216PEETBRO,2013-08-16 10:04:00,
2013-08-16 06:09:00,79.5,76.4,30.05,South,172,0.0,0.0,90,0.00,,,0.00,WUHU216PEETBRO,2013-08-16 10:09:00,
2013-08-16 06:14:00,79.7,76.6,30.05,South,172,0.0,0.0,90,0.00,,,0.00,WUHU216PEETBRO,2013-08-16 10:14:00,
2013-08-16 06:19:00,79.5,76.3,30.05,South,172,0.0,0.0,90,0.00,,,0.00,WUHU216PEETBRO,2013-08-16 10:19:00,
2013-08-16 06:24:00,79.5,76.3,30.06,South,172,0.0,0.0,90,0.00,,,0.00,WUHU216PEETBRO,2013-08-16 10:24:00,
2013-08-16 06:29:00,79.5,76.3,30.06,South,172,0.0,0.0,90,0.00,,,0.00,WUHU216PEETBRO,2013-08-16 10:29:00,
2013-08-16 06:34:00,79.4,76.2,30.06,South,172,0.0,0.0,90,0.00,,,0.00,WUHU216PEETBRO,2013-08-16 10:34:00,
2013-08-16 06:39:00,79.5,76.4,30.05,South,172,0.0,0.0,90,0.00,,,0.00,WUHU216PEETBRO,2013-08-16 10:39:00,
2013-08-16 06:44:00,79.4,76.3,30.05,South,172,0.0,0.0,90,0.00,,,0.00,WUHU216PEETBRO,2013-08-16 10:44:00,
2013-08-16 06:49:00,79.5,76.5,30.06,South,172,0.0,0.0,91,0.00,,,0.00,WUHU216PEETBRO,2013-08-16 10:49:00,
2013-08-16 06:54:00,79.5,76.5,30.06,South,172,0.0,0.0,91,0.00,,,0.00,WUHU216PEETBRO,2013-08-16 10:54:00,
2013-08-16 06:59:00,79.5,76.6,30.06,South,172,0.0,0.0,91,0.00,,,0.00,WUHU216PEETBRO,2013-08-16 10:59:00,
2013-08-16 07:04:00,79.4,76.5,30.06,South,172,0.0,0.0,91,0.00,,,0.00,WUHU216PEETBRO,2013-08-16 11:04:00,
2013-08-16 07:09:00,79.4,76.6,30.06,South,172,0.0,0.0,91,0.00,,,0.00,WUHU216PEETBRO,2013-08-16 11:09:00,
2013-08-16 07:14:00,79.4,76.6,30.06,South,172,0.0,0.0,91,0.00,,,0.00,WUHU216PEETBRO,2013-08-16 11:14:00,
2013-08-16 07:19:00,79.4,76.6,30.06,South,172,0.0,0.0,91,0.00,,,0.00,WUHU216PEETBRO,2013-08-16 11:19:00,
2013-08-16 07:24:00,79.4,76.6,30.06,South,173,0.0,2.6,91,0.00,,,0.00,WUHU216PEETBRO,2013-08-16 11:24:00,
2013-08-16 07:29:00,79.4,76.6,30.06,South,173,0.0,2.6,91,0.00,,,0.00,WUHU216PEETBRO,2013-08-16 11:29:00,
2013-08-16 07:34:00,79.4,76.6,30.06,South,173,0.0,0.0,91,0.00,,,0.00,WUHU216PEETBRO,2013-08-16 11:34:00,
2013-08-16 07:39:00,79.4,76.6,30.06,South,173,0.0,0.0,91,0.00,,,0.00,WUHU216PEETBRO,2013-08-16 11:39:00,
2013-08-16 07:44:00,79.5,76.7,30.06,South,173,0.0,0.0,91,0.00,,,0.00,WUHU216PEETBRO,2013-08-16 11:44:00,
2013-08-16 07:49:00,79.7,76.9,30.06,South,173,0.0,3.3,91,0.00,,,0.00,WUHU216PEETBRO,2013-08-16 11:49:00,
2013-08-16 07:54:00,79.7,76.9,30.06,SSE,148,3.4,4.9,91,0.00,,,0.00,WUHU216PEETBRO,2013-08-16 11:54:00,
2013-08-16 07:59:00,79.8,77.0,30.06,SE,146,5.0,6.1,91,0.00,,,0.00,WUHU216PEETBRO,2013-08-16 11:59:00,
2013-08-16 08:04:00,79.9,77.1,30.07,South,189,7.8,7.8,91,0.00,,,0.00,WUHU216PEETBRO,2013-08-16 12:04:00,
2013-08-16 08:09:00,79.9,77.1,30.07,SE,139,2.9,7.8,91,0.00,,,0.00,WUHU216PEETBRO,2013-08-16 12:09:00,
2013-08-16 08:14:00,80.0,77.3,30.07,SE,135,0.0,6.2,91,0.00,,,0.00,WUHU216PEETBRO,2013-08-16 12:14:00,
2013-08-16 08:19:00,80.1,77.4,30.07,SE,135,0.0,2.9,92,0.00,,,0.00,WUHU216PEETBRO,2013-08-16 12:19:00,
2013-08-16 08:24:00,80.2,77.5,30.07,South,173,4.3,7.1,92,0.00,,,0.00,WUHU216PEETBRO,2013-08-16 12:24:00,
2013-08-16 08:29:00,80.2,77.4,30.07,SSE,159,3.4,7.1,91,0.00,,,0.00,WUHU216PEETBRO,2013-08-16 12:29:00,
2013-08-16 08:35:00,80.4,77.6,30.07,SE,142,0.0,6.8,91,0.00,,,0.00,WUHU216PEETBRO,2013-08-16 12:35:00,
2013-08-16 08:40:00,80.6,77.4,30.07,South,172,6.8,7.5,90,0.00,,,0.00,WUHU216PEETBRO,2013-08-16 12:40:00,
2013-08-16 08:45:00,81.0,77.3,30.07,South,173,5.0,8.2,88,0.00,,,0.00,WUHU216PEETBRO,2013-08-16 12:45:00,
2013-08-16 08:50:00,81.2,77.2,30.07,SSE,155,0.0,8.2,88,0.00,,,0.00,WUHU216PEETBRO,2013-08-16 12:50:00,
2013-08-16 08:55:00,81.3,77.1,30.07,SSE,151,0.0,8.1,87,0.00,,,0.00,WUHU216PEETBRO,2013-08-16 12:55:00,
2013-08-16 09:00:00,81.6,77.1,30.07,SSW,193,0.0,7.5,86,0.00,,,0.00,WUHU216PEETBRO,2013-08-16 13:00:00,
2013-08-16 09:05:00,81.8,77.1,30.07,SE,135,0.0,7.2,86,0.00,,,0.00,WUHU216PEETBRO,2013-08-16 13:05:00,
2013-08-16 09:10:00,82.2,77.4,30.06,SE,135,0.0,7.2,85,0.00,,,0.00,WUHU216PEETBRO,2013-08-16 13:10:00,
2013-08-16 09:15:00,82.4,77.2,30.06,SE,135,0.0,0.0,84,0.00,,,0.00,WUHU216PEETBRO,2013-08-16 13:15:00,
2013-08-16 09:20:00,82.4,76.9,30.06,North,359,0.0,5.3,83,0.00,,,0.00,WUHU216PEETBRO,2013-08-16 13:20:00,
2013-08-16 09:25:00,82.6,76.7,30.06,South,184,3.4,6.8,82,0.00,,,0.00,WUHU216PEETBRO,2013-08-16 13:25:00,
2013-08-16 09:30:00,82.7,76.3,30.06,SE,145,0.0,6.8,81,0.00,,,0.00,WUHU216PEETBRO,2013-08-16 13:30:00,
2013-08-16 09:35:00,83.0,76.6,30.06,South,176,4.2,4.7,81,0.00,,,0.00,WUHU216PEETBRO,2013-08-16 13:35:00,
2013-08-16 09:40:00,83.3,76.6,30.06,SSW,197,4.5,5.1,80,0.00,,,0.00,WUHU216PEETBRO,2013-08-16 13:40:00,
2013-08-16 09:45:00,83.4,76.5,30.06,SSW,201,0.0,6.0,79,0.00,,,0.00,WUHU216PEETBRO,2013-08-16 13:45:00,
2013-08-16 09:50:00,83.5,76.5,30.06,SE,128,2.6,7.5,79,0.00,,,0.00,WUHU216PEETBRO,2013-08-16 13:50:00,
2013-08-16 09:55:00,83.6,76.5,30.07,SSE,160,4.2,7.5,79,0.00,,,0.00,WUHU216PEETBRO,2013-08-16 13:55:00,
2013-08-16 10:00:00,83.7,76.4,30.07,East,84,0.0,5.8,79,0.00,,,0.00,WUHU216PEETBRO,2013-08-16 14:00:00,
2013-08-16 10:05:00,83.8,76.4,30.07,South,180,3.4,6.3,78,0.00,,,0.00,WUHU216PEETBRO,2013-08-16 14:05:00,
2013-08-16 10:10:00,83.9,76.2,30.07,South,184,3.1,6.5,77,0.00,,,0.00,WUHU216PEETBRO,2013-08-16 14:10:00,
2013-08-16 10:15:00,84.2,76.4,30.07,South,184,0.0,6.5,77,0.00,,,0.00,WUHU216PEETBRO,2013-08-16 14:15:00,
2013-08-16 10:20:00,84.4,76.0,30.07,SSE,152,3.2,6.3,76,0.00,,,0.00,WUHU216PEETBRO,2013-08-16 14:20:00,
2013-08-16 10:25:00,84.6,76.6,30.07,South,176,5.5,6.3,77,0.00,,,0.00,WUHU216PEETBRO,2013-08-16 14:25:00,
2013-08-16 10:30:00,85.1,76.8,30.07,SE,141,0.0,7.3,76,0.00,,,0.00,WUHU216PEETBRO,2013-08-16 14:30:00,
2013-08-16 10:35:00,85.7,76.9,30.07,SSE,148,0.0,7.3,75,0.00,,,0.00,WUHU216PEETBRO,2013-08-16 14:35:00,
2013-08-16 10:40:00,86.4,77.0,30.07,SW,215,2.8,5.7,73,0.00,,,0.00,WUHU216PEETBRO,2013-08-16 14:40:00,
2013-08-16 10:45:00,87.1,76.4,30.07,SE,141,5.1,6.6,70,0.00,,,0.00,WUHU216PEETBRO,2013-08-16 14:45:00,
2013-08-16 10:50:00,87.5,76.1,30.07,SE,141,0.0,6.9,69,0.00,,,0.00,WUHU216PEETBRO,2013-08-16 14:50:00,
2013-08-16 10:55:00,87.7,74.1,30.07,SE,141,3.2,7.8,64,0.00,,,0.00,WUHU216PEETBRO,2013-08-16 14:55:00,
2013-08-16 11:00:00,87.7,75.6,30.07,South,189,0.0,7.8,67,0.00,,,0.00,WUHU216PEETBRO,2013-08-16 15:00:00,
2013-08-16 11:05:00,87.7,74.9,30.07,South,184,4.7,6.5,65,0.00,,,0.00,WUHU216PEETBRO,2013-08-16 15:05:00,
2013-08-16 11:10:00,87.5,75.2,30.07,SSW,197,3.2,8.0,66,0.00,,,0.00,WUHU216PEETBRO,2013-08-16 15:10:00,
2013-08-16 11:15:00,87.3,75.0,30.06,SSE,165,3.0,8.0,66,0.00,,,0.00,WUHU216PEETBRO,2013-08-16 15:15:00,
2013-08-16 11:20:00,87.5,75.0,30.06,SW,225,2.6,8.0,66,0.00,,,0.00,WUHU216PEETBRO,2013-08-16 15:20:00,
2013-08-16 11:25:00,87.7,75.5,30.06,South,173,7.5,8.3,67,0.00,,,0.00,WUHU216PEETBRO,2013-08-16 15:25:00,
2013-08-16 11:30:00,87.5,76.1,30.06,ESE,112,0.0,8.3,68,0.00,,,0.00,WUHU216PEETBRO,2013-08-16 15:30:00,
2013-08-16 11:35:00,87.6,75.8,30.06,South,170,3.4,6.8,68,0.00,,,0.00,WUHU216PEETBRO,2013-08-16 15:35:00,
2013-08-16 11:40:00,87.5,74.5,30.06,South,187,0.0,6.1,65,0.00,,,0.00,WUHU216PEETBRO,2013-08-16 15:40:00,
2013-08-16 11:45:00,87.6,75.6,30.06,SW,235,8.6,8.6,67,0.00,,,0.00,WUHU216PEETBRO,2013-08-16 15:45:00,
2013-08-16 11:50:00,87.5,75.5,30.06,SSW,200,4.7,8.6,67,0.00,,,0.00,WUHU216PEETBRO,2013-08-16 15:50:00,
2013-08-16 11:55:00,87.2,75.4,30.06,SSW,196,5.3,6.7,68,0.00,,,0.00,WUHU216PEETBRO,2013-08-16 15:55:00,
2013-08-16 12:00:00,87.1,75.7,30.06,SSW,196,4.7,8.7,68,0.00,,,0.00,WUHU216PEETBRO,2013-08-16 16:00:00,
2013-08-16 12:05:00,86.9,74.9,30.06,South,170,0.0,8.7,67,0.00,,,0.00,WUHU216PEETBRO,2013-08-16 16:05:00,
2013-08-16 12:10:00,87.0,75.1,30.06,South,175,0.0,6.6,67,0.00,,,0.00,WUHU216PEETBRO,2013-08-16 16:10:00,
2013-08-16 12:15:00,87.4,74.9,30.06,SSW,200,5.2,6.0,66,0.00,,,0.00,WUHU216PEETBRO,2013-08-16 16:15:00,
2013-08-16 12:20:00,87.6,74.9,30.06,SW,232,7.1,8.3,65,0.00,,,0.00,WUHU216PEETBRO,2013-08-16 16:20:00,
2013-08-16 12:25:00,87.6,74.9,30.05,SW,232,4.3,8.3,66,0.00,,,0.00,WUHU216PEETBRO,2013-08-16 16:25:00,
2013-08-16 12:30:00,87.9,74.6,30.05,SW,228,0.0,7.4,64,0.00,,,0.00,WUHU216PEETBRO,2013-08-16 16:30:00,
2013-08-16 12:35:00,88.2,73.0,30.05,South,173,5.6,7.4,60,0.00,,,0.00,WUHU216PEETBRO,2013-08-16 16:35:00,
2013-08-16 12:40:00,88.2,73.1,30.05,South,191,4.7,7.4,61,0.00,,,0.00,WUHU216PEETBRO,2013-08-16 16:40:00,
2013-08-16 12:45:00,88.2,74.4,30.05,WSW,249,7.4,7.4,63,0.00,,,0.00,WUHU216PEETBRO,2013-08-16 16:45:00,
2013-08-16 12:50:00,88.2,73.9,30.05,SSW,211,6.2,7.5,62,0.00,,,0.00,WUHU216PEETBRO,2013-08-16 16:50:00,
2013-08-16 12:55:00,88.4,74.4,30.05,SE,143,4.5,7.5,63,0.00,,,0.00,WUHU216PEETBRO,2013-08-16 16:55:00,
2013-08-16 13:00:00,88.7,73.7,30.05,SSE,155,0.0,5.8,61,0.00,,,0.00,WUHU216PEETBRO,2013-08-16 17:00:00,
2013-08-16 13:05:00,88.5,74.1,30.04,SW,218,0.0,8.9,62,0.00,,,0.00,WUHU216PEETBRO,2013-08-16 17:05:00,
2013-08-16 13:10:00,88.1,74.1,30.04,SSE,155,0.0,8.9,63,0.00,,,0.00,WUHU216PEETBRO,2013-08-16 17:10:00,
2013-08-16 13:15:00,87.9,73.5,30.04,SE,141,0.0,7.0,62,0.00,,,0.00,WUHU216PEETBRO,2013-08-16 17:15:00,
2013-08-16 13:20:00,87.8,73.9,30.04,South,189,0.0,7.0,63,0.00,,,0.00,WUHU216PEETBRO,2013-08-16 17:20:00,
2013-08-16 13:25:00,87.8,74.2,30.04,South,191,5.3,7.0,64,0.00,,,0.00,WUHU216PEETBRO,2013-08-16 17:25:00,
2013-08-16 13:30:00,87.9,75.0,30.04,SSW,201,5.8,7.7,65,0.00,,,0.00,WUHU216PEETBRO,2013-08-16 17:30:00,
2013-08-16 13:35:00,88.2,74.9,30.04,SW,215,5.8,7.7,64,0.00,,,0.00,WUHU216PEETBRO,2013-08-16 17:35:00,
2013-08-16 13:40:00,88.4,75.0,30.04,SSW,203,4.5,7.8,64,0.00,,,0.00,WUHU216PEETBRO,2013-08-16 17:40:00,
2013-08-16 13:45:00,88.7,74.6,30.04,South,176,0.0,7.8,63,0.00,,,0.00,WUHU216PEETBRO,2013-08-16 17:45:00,
2013-08-16 13:50:00,89.2,74.7,30.04,SSW,206,3.2,6.1,62,0.00,,,0.00,WUHU216PEETBRO,2013-08-16 17:50:00,
2013-08-16 13:55:00,89.5,74.3,30.03,WSW,255,0.0,7.2,61,0.00,,,0.00,WUHU216PEETBRO,2013-08-16 17:55:00,
2013-08-16 14:00:00,89.7,74.1,30.03,SSE,156,0.0,7.2,60,0.00,,,0.00,WUHU216PEETBRO,2013-08-16 18:00:00,
2013-08-16 14:05:00,89.9,74.1,30.03,SSE,156,0.0,9.1,59,0.00,,,0.00,WUHU216PEETBRO,2013-08-16 18:05:00,
2013-08-16 14:10:00,90.2,74.0,30.03,SSE,158,5.8,9.1,59,0.00,,,0.00,WUHU216PEETBRO,2013-08-16 18:10:00,
2013-08-16 14:15:00,90.1,73.7,30.03,SE,134,0.0,7.8,58,0.00,,,0.00,WUHU216PEETBRO,2013-08-16 18:15:00,
2013-08-16 14:20:00,89.8,73.1,30.03,ESE,118,4.7,7.9,58,0.00,,,0.00,WUHU216PEETBRO,2013-08-16 18:20:00,
2013-08-16 14:25:00,89.9,73.3,30.03,South,186,0.0,7.9,58,0.00,,,0.00,WUHU216PEETBRO,2013-08-16 18:25:00,
2013-08-16 14:30:00,90.0,73.3,30.02,ENE,66,0.0,5.7,58,0.00,,,0.00,WUHU216PEETBRO,2013-08-16 18:30:00,
2013-08-16 14:35:00,89.7,72.5,30.02,SSE,155,5.0,8.8,57,0.00,,,0.00,WUHU216PEETBRO,2013-08-16 18:35:00,
2013-08-16 14:40:00,89.5,72.8,30.02,SE,145,0.0,8.8,57,0.00,,,0.00,WUHU216PEETBRO,2013-08-16 18:40:00,
2013-08-16 14:45:00,89.4,72.1,30.02,SSE,156,5.7,8.8,56,0.00,,,0.00,WUHU216PEETBRO,2013-08-16 18:45:00,
2013-08-16 14:50:00,89.6,72.3,30.01,SE,131,0.0,8.8,56,0.00,,,0.00,WUHU216PEETBRO,2013-08-16 18:50:00,
2013-08-16 14:55:00,90.1,72.4,30.01,SE,124,0.0,7.0,56,0.00,,,0.00,WUHU216PEETBRO,2013-08-16 18:55:00,
2013-08-16 15:00:00,90.3,70.0,30.01,South,169,7.1,8.9,51,0.00,,,0.00,WUHU216PEETBRO,2013-08-16 19:00:00,
2013-08-16 15:05:00,90.6,69.2,30.01,ESE,117,4.5,8.9,49,0.00,,,0.00,WUHU216PEETBRO,2013-08-16 19:05:00,
2013-08-16 15:10:00,90.9,69.5,30.01,South,187,3.2,7.6,49,0.00,,,0.00,WUHU216PEETBRO,2013-08-16 19:10:00,
2013-08-16 15:15:00,91.6,70.0,30.01,South,177,5.4,10.3,49,0.00,,,0.00,WUHU216PEETBRO,2013-08-16 19:15:00,
2013-08-16 15:20:00,92.0,69.6,30.00,WSW,244,0.0,10.3,48,0.00,,,0.00,WUHU216PEETBRO,2013-08-16 19:20:00,
2013-08-16 15:25:00,91.3,66.8,30.00,SSE,162,4.3,10.1,45,0.00,,,0.00,WUHU216PEETBRO,2013-08-16 19:25:00,
2013-08-16 15:30:00,91.0,68.8,30.00,South,170,4.7,10.1,48,0.00,,,0.00,WUHU216PEETBRO,2013-08-16 19:30:00,
2013-08-16 15:35:00,90.8,69.7,30.00,SSE,159,3.3,9.6,50,0.00,,,0.00,WUHU216PEETBRO,2013-08-16 19:35:00,
2013-08-16 15:40:00,91.3,70.1,30.00,SW,225,4.7,8.8,50,0.00,,,0.00,WUHU216PEETBRO,2013-08-16 19:40:00,
2013-08-16 15:45:00,91.9,69.5,30.00,ENE,67,0.0,8.8,48,0.00,,,0.00,WUHU216PEETBRO,2013-08-16 19:45:00,
2013-08-16 15:50:00,92.0,67.2,30.00,South,173,9.8,9.8,44,0.00,,,0.00,WUHU216PEETBRO,2013-08-16 19:50:00,
2013-08-16 15:55:00,92.0,66.3,30.00,SSE,159,0.0,9.8,43,0.00,,,0.00,WUHU216PEETBRO,2013-08-16 19:55:00,
2013-08-16 16:00:00,91.8,68.6,29.99,South,170,5.1,8.6,47,0.00,,,0.00,WUHU216PEETBRO,2013-08-16 20:00:00,
2013-08-16 16:05:00,91.5,68.2,29.99,SE,136,0.0,6.4,46,0.00,,,0.00,WUHU216PEETBRO,2013-08-16 20:05:00,
2013-08-16 16:10:00,91.4,66.9,29.99,SSE,162,6.6,8.6,45,0.00,,,0.00,WUHU216PEETBRO,2013-08-16 20:10:00,
2013-08-16 16:15:00,91.2,67.6,29.99,South,172,5.0,8.6,46,0.00,,,0.00,WUHU216PEETBRO,2013-08-16 20:15:00,
2013-08-16 16:20:00,91.2,67.4,29.99,SSE,155,6.8,7.5,46,0.00,,,0.00,WUHU216PEETBRO,2013-08-16 20:20:00,
2013-08-16 16:25:00,91.1,68.0,29.99,South,175,7.5,7.5,47,0.00,,,0.00,WUHU216PEETBRO,2013-08-16 20:25:00,
2013-08-16 16:30:00,91.1,68.5,29.99,ENE,59,2.9,10.3,48,0.00,,,0.00,WUHU216PEETBRO,2013-08-16 20:30:00,
2013-08-16 16:35:00,91.2,68.9,29.99,South,176,3.2,10.3,48,0.00,,,0.00,WUHU216PEETBRO,2013-08-16 20:35:00,
2013-08-16 16:40:00,91.2,68.4,29.99,SE,129,0.0,6.8,47,0.00,,,0.00,WUHU216PEETBRO,2013-08-16 20:40:00,
2013-08-16 16:45:00,91.1,68.8,29.99,SW,218,0.0,4.8,48,0.00,,,0.00,WUHU216PEETBRO,2013-08-16 20:45:00,
2013-08-16 16:50:00,91.2,68.4,29.99,ENE,57,0.0,5.2,47,0.00,,,0.00,WUHU216PEETBRO,2013-08-16 20:50:00,
2013-08-16 16:55:00,91.3,68.3,29.99,South,189,0.0,6.3,47,0.00,,,0.00,WUHU216PEETBRO,2013-08-16 20:55:00,
2013-08-16 17:00:00,91.2,68.1,29.99,SSW,207,0.0,6.3,47,0.00,,,0.00,WUHU216PEETBRO,2013-08-16 21:00:00,
2013-08-16 17:05:00,91.2,68.1,29.99,NE,47,2.7,5.6,47,0.00,,,0.00,WUHU216PEETBRO,2013-08-16 21:05:00,
2013-08-16 17:10:00,91.0,68.1,29.99,SW,224,6.9,7.8,47,0.00,,,0.00,WUHU216PEETBRO,2013-08-16 21:10:00,
2013-08-16 17:15:00,90.6,69.0,30.00,SW,220,12.7,16.6,49,0.00,,,0.00,WUHU216PEETBRO,2013-08-16 21:15:00,
2013-08-16 17:20:00,85.6,72.5,30.01,SSW,196,14.0,21.3,65,0.00,,,0.00,WUHU216PEETBRO,2013-08-16 21:20:00,
2013-08-16 17:25:00,82.7,72.8,30.01,WSW,254,18.9,22.9,72,0.00,,,0.00,WUHU216PEETBRO,2013-08-16 21:25:00,
2013-08-16 17:30:00,79.3,74.3,30.03,West,268,6.8,22.9,85,0.03,,,0.03,WUHU216PEETBRO,2013-08-16 21:30:00,
2013-08-16 17:35:00,78.3,74.9,30.04,WSW,237,9.3,16.6,89,0.06,,,0.06,WUHU216PEETBRO,2013-08-16 21:35:00,
2013-08-16 17:40:00,77.7,74.7,30.03,SW,228,4.9,10.4,91,0.07,,,0.07,WUHU216PEETBRO,2013-08-16 21:40:00,
2013-08-16 17:45:00,77.8,75.4,30.03,WSW,254,0.0,9.2,92,0.07,,,0.07,WUHU216PEETBRO,2013-08-16 21:45:00,
2013-08-16 17:50:00,77.4,75.3,30.03,WSW,255,0.0,8.1,93,0.07,,,0.07,WUHU216PEETBRO,2013-08-16 21:50:00,
2013-08-16 17:55:00,77.2,74.9,30.03,SW,221,0.0,9.6,93,0.07,,,0.07,WUHU216PEETBRO,2013-08-16 21:55:00,
2013-08-16 18:00:00,77.1,74.7,30.02,SSW,208,0.0,9.6,93,0.07,,,0.07,WUHU216PEETBRO,2013-08-16 22:00:00,
2013-08-16 18:05:00,77.2,74.8,30.02,South,189,0.0,3.4,92,0.07,,,0.07,WUHU216PEETBRO,2013-08-16 22:05:00,
2013-08-16 18:10:00,77.3,74.7,30.01,South,180,0.0,7.0,92,0.07,,,0.07,WUHU216PEETBRO,2013-08-16 22:10:00,
2013-08-16 18:15:00,77.2,74.3,30.01,South,180,0.0,7.0,91,0.07,,,0.07,WUHU216PEETBRO,2013-08-16 22:15:00,
2013-08-16 18:20:00,77.4,74.7,30.01,South,180,0.0,0.0,91,0.07,,,0.07,WUHU216PEETBRO,2013-08-16 22:20:00,
2013-08-16 18:25:00,77.8,74.9,30.00,South,180,0.0,0.0,91,0.07,,,0.07,WUHU216PEETBRO,2013-08-16 22:25:00,
2013-08-16 18:30:00,77.9,75.0,30.01,South,180,0.0,0.0,91,0.04,,,0.07,WUHU216PEETBRO,2013-08-16 22:30:00,
2013-08-16 18:35:00,78.0,75.2,30.02,South,180,0.0,0.0,91,0.01,,,0.07,WUHU216PEETBRO,2013-08-16 22:35:00,
2013-08-16 18:40:00,78.2,75.2,30.02,South,180,0.0,0.0,91,0.00,,,0.07,WUHU216PEETBRO,2013-08-16 22:40:00,
2013-08-16 18:45:00,78.7,75.5,30.03,South,180,0.0,0.0,90,0.00,,,0.07,WUHU216PEETBRO,2013-08-16 22:45:00,
2013-08-16 18:50:00,78.9,75.6,30.03,South,180,0.0,0.0,90,0.00,,,0.07,WUHU216PEETBRO,2013-08-16 22:50:00,
2013-08-16 18:55:00,79.7,76.4,30.04,South,180,0.0,0.0,90,0.00,,,0.07,WUHU216PEETBRO,2013-08-16 22:55:00,
2013-08-16 19:00:00,79.5,76.1,30.04,South,180,0.0,0.0,89,0.00,,,0.07,WUHU216PEETBRO,2013-08-16 23:00:00,
2013-08-16 19:05:00,79.4,75.8,30.04,NE,43,0.0,0.0,89,0.00,,,0.07,WUHU216PEETBRO,2013-08-16 23:05:00,
2013-08-16 19:10:00,79.5,75.9,30.04,East,95,9.9,11.8,89,0.00,,,0.07,WUHU216PEETBRO,2013-08-16 23:10:00,
2013-08-16 19:15:00,79.7,76.1,30.05,ESE,104,8.3,11.8,89,0.00,,,0.07,WUHU216PEETBRO,2013-08-16 23:15:00,
2013-08-16 19:20:00,79.5,75.7,30.05,NE,55,6.8,11.8,88,0.00,,,0.07,WUHU216PEETBRO,2013-08-16 23:20:00,
2013-08-16 19:25:00,79.4,75.5,30.05,NE,49,8.2,11.4,88,0.00,,,0.07,WUHU216PEETBRO,2013-08-16 23:25:00,
2013-08-16 19:30:00,79.3,75.5,30.05,ENE,69,5.4,11.4,88,0.00,,,0.07,WUHU216PEETBRO,2013-08-16 23:30:00,
2013-08-16 19:35:00,79.2,75.2,30.04,NW,311,0.0,9.4,88,0.00,,,0.07,WUHU216PEETBRO,2013-08-16 23:35:00,
2013-08-16 19:40:00,79.0,75.2,30.05,SSE,148,7.6,7.6,88,0.00,,,0.07,WUHU216PEETBRO,2013-08-16 23:40:00,
2013-08-16 19:45:00,78.9,75.2,30.05,NE,46,0.0,7.6,88,0.00,,,0.07,WUHU216PEETBRO,2013-08-16 23:45:00,
2013-08-16 19:50:00,78.9,75.2,30.05,ENE,62,3.1,7.6,88,0.00,,,0.07,WUHU216PEETBRO,2013-08-16 23:50:00,
2013-08-16 19:55:00,78.9,75.2,30.05,ESE,119,0.0,6.3,88,0.00,,,0.07,WUHU216PEETBRO,2013-08-16 23:55:00,
2013-08-16 20:00:00,78.9,75.2,30.05,NE,43,0.0,3.3,89,0.00,,,0.07,WUHU216PEETBRO,2013-08-17 00:00:00,
2013-08-16 20:05:00,79.0,75.3,30.05,SE,145,3.4,4.5,88,0.00,,,0.07,WUHU216PEETBRO,2013-08-17 00:05:00,
2013-08-16 20:10:00,79.0,75.3,30.05,SSE,148,3.1,5.7,88,0.00,,,0.07,WUHU216PEETBRO,2013-08-17 00:10:00,
2013-08-16 20:15:00,79.0,75.3,30.06,ESE,114,0.0,5.7,88,0.00,,,0.07,WUHU216PEETBRO,2013-08-17 00:15:00,
2013-08-16 20:20:00,78.9,75.2,30.06,ESE,114,0.0,5.3,88,0.00,,,0.07,WUHU216PEETBRO,2013-08-17 00:20:00,
2013-08-16 20:25:00,79.0,75.3,30.06,SE,134,2.9,5.2,88,0.00,,,0.07,WUHU216PEETBRO,2013-08-17 00:25:00,
2013-08-16 20:30:00,79.0,75.3,30.06,SE,128,0.0,5.2,88,0.00,,,0.07,WUHU216PEETBRO,2013-08-17 00:30:00,
2013-08-16 20:35:00,79.0,75.4,30.06,ENE,62,0.0,4.5,89,0.00,,,0.07,WUHU216PEETBRO,2013-08-17 00:35:00,
2013-08-16 20:40:00,79.1,75.5,30.07,East,90,0.0,4.2,89,0.00,,,0.07,WUHU216PEETBRO,2013-08-17 00:40:00,
2013-08-16 20:45:00,79.2,75.7,30.07,NE,35,0.0,5.2,89,0.00,,,0.07,WUHU216PEETBRO,2013-08-17 00:45:00,
2013-08-16 20:50:00,79.2,75.7,30.07,NE,35,0.0,5.2,89,0.00,,,0.07,WUHU216PEETBRO,2013-08-17 00:50:00,
2013-08-16 20:55:00,79.2,75.7,30.07,NE,35,0.0,3.4,89,0.00,,,0.07,WUHU216PEETBRO,2013-08-17 00:55:00,
2013-08-16 21:00:00,79.3,75.9,30.07,NE,35,0.0,0.0,89,0.00,,,0.07,WUHU216PEETBRO,2013-08-17 01:00:00,
2013-08-16 21:05:00,79.4,76.1,30.07,NE,35,2.6,2.6,90,0.00,,,0.07,WUHU216PEETBRO,2013-08-17 01:05:00,
2013-08-16 21:10:00,79.4,76.1,30.07,ESE,112,3.4,6.5,90,0.00,,,0.07,WUHU216PEETBRO,2013-08-17 01:10:00,
2013-08-16 21:15:00,79.4,76.2,30.08,ESE,105,0.0,6.5,90,0.00,,,0.07,WUHU216PEETBRO,2013-08-17 01:15:00,
2013-08-16 21:20:00,79.5,76.4,30.08,SSE,163,0.0,6.5,90,0.00,,,0.07,WUHU216PEETBRO,2013-08-17 01:20:00,
2013-08-16 21:25:00,79.5,76.4,30.08,ESE,112,0.0,6.5,90,0.00,,,0.07,WUHU216PEETBRO,2013-08-17 01:25:00,
2013-08-16 21:30:00,79.7,76.8,30.08,SE,128,0.0,3.5,91,0.00,,,0.07,WUHU216PEETBRO,2013-08-17 01:30:00,
2013-08-16 21:35:00,79.7,76.9,30.08,SE,128,0.0,3.5,91,0.00,,,0.07,WUHU216PEETBRO,2013-08-17 01:35:00,
2013-08-16 21:40:00,79.7,77.0,30.08,East,80,0.0,3.3,91,0.00,,,0.07,WUHU216PEETBRO,2013-08-17 01:40:00,
2013-08-16 21:45:00,79.8,77.1,30.09,East,80,0.0,3.3,92,0.00,,,0.07,WUHU216PEETBRO,2013-08-17 01:45:00,
2013-08-16 21:50:00,79.9,77.4,30.09,SSE,158,0.0,0.0,92,0.00,,,0.07,WUHU216PEETBRO,2013-08-17 01:50:00,
2013-08-16 21:55:00,79.9,77.4,30.09,SSE,158,0.0,0.0,92,0.00,,,0.07,WUHU216PEETBRO,2013-08-17 01:55:00,
2013-08-16 22:00:00,79.9,77.4,30.09,SSE,152,0.0,4.4,92,0.00,,,0.07,WUHU216PEETBRO,2013-08-17 02:00:00,
2013-08-16 22:05:00,79.9,77.5,30.09,SSE,152,0.0,4.4,93,0.00,,,0.07,WUHU216PEETBRO,2013-08-17 02:05:00,
2013-08-16 22:10:00,79.9,77.5,30.09,SSE,152,0.0,0.0,93,0.00,,,0.07,WUHU216PEETBRO,2013-08-17 02:10:00,
2013-08-16 22:15:00,80.0,77.6,30.09,SSE,152,0.0,0.0,93,0.00,,,0.07,WUHU216PEETBRO,2013-08-17 02:15:00,
2013-08-16 22:20:00,79.9,77.5,30.09,ESE,108,3.5,5.5,93,0.00,,,0.07,WUHU216PEETBRO,2013-08-17 02:20:00,
2013-08-16 22:25:00,80.0,77.7,30.09,SE,124,0.0,5.5,93,0.00,,,0.07,WUHU216PEETBRO,2013-08-17 02:25:00,
2013-08-16 22:30:00,80.0,77.7,30.10,SE,124,0.0,5.5,93,0.00,,,0.07,WUHU216PEETBRO,2013-08-17 02:30:00,
2013-08-16 22:35:00,80.0,77.7,30.10,East,87,4.3,4.7,93,0.00,,,0.07,WUHU216PEETBRO,2013-08-17 02:35:00,
2013-08-16 22:40:00,80.1,77.8,30.09,ESE,107,0.0,5.0,93,0.00,,,0.07,WUHU216PEETBRO,2013-08-17 02:40:00,
2013-08-16 22:45:00,80.1,77.9,30.09,ESE,119,0.0,5.1,93,0.01,,,0.08,WUHU216PEETBRO,2013-08-17 02:45:00,
2013-08-16 22:50:00,80.1,77.9,30.09,SSE,153,0.0,6.5,93,0.01,,,0.08,WUHU216PEETBRO,2013-08-17 02:50:00,
2013-08-16 22:55:00,80.1,77.9,30.09,SSE,155,0.0,6.5,93,0.01,,,0.08,WUHU216PEETBRO,2013-08-17 02:55:00,
2013-08-16 23:00:00,80.0,77.9,30.09,SSE,155,0.0,4.8,93,0.01,,,0.08,WUHU216PEETBRO,2013-08-17 03:00:00,
2013-08-16 23:05:00,80.0,78.0,30.09,SSE,155,0.0,0.0,94,0.01,,,0.08,WUHU216PEETBRO,2013-08-17 03:05:00,
2013-08-16 23:10:00,80.0,78.0,30.10,SSE,163,0.0,4.3,94,0.01,,,0.08,WUHU216PEETBRO,2013-08-17 03:10:00,
2013-08-16 23:15:00,80.1,78.1,30.10,SSE,163,0.0,4.3,94,0.01,,,0.08,WUHU216PEETBRO,2013-08-17 03:15:00,
2013-08-16 23:20:00,80.2,78.3,30.10,SSE,163,0.0,0.0,94,0.02,,,0.09,WUHU216PEETBRO,2013-08-17 03:20:00,
2013-08-16 23:25:00,80.2,78.3,30.10,SSE,163,0.0,0.0,94,0.04,,,0.11,WUHU216PEETBRO,2013-08-17 03:25:00,
2013-08-16 23:30:00,80.2,78.4,30.10,SSE,163,0.0,4.2,94,0.05,,,0.12,WUHU216PEETBRO,2013-08-17 03:30:00,
2013-08-16 23:35:00,80.1,78.4,30.10,SSW,200,3.0,4.2,95,0.07,,,0.14,WUHU216PEETBRO,2013-08-17 03:35:00,
2013-08-16 23:40:00,79.2,77.2,30.11,SSW,204,0.0,6.9,94,0.12,,,0.19,WUHU216PEETBRO,2013-08-17 03:40:00,
2013-08-16 23:45:00,78.7,76.8,30.10,SW,214,0.0,6.9,94,0.22,,,0.30,WUHU216PEETBRO,2013-08-17 03:45:00,
2013-08-16 23:50:00,78.2,76.4,30.10,SW,214,0.0,4.6,94,0.27,,,0.35,WUHU216PEETBRO,2013-08-17 03:50:00,
2013-08-16 23:55:00,77.9,76.2,30.10,SW,214,0.0,0.0,95,0.30,,,0.38,WUHU216PEETBRO,2013-08-17 03:55:00,